createdAt,value
2023-01-13T00:00:15.594Z,1.35
2023-01-13T00:02:42.457Z,1.02
2023-01-13T00:05:10.311Z,1.08
2023-01-13T00:07:40.137Z,1.30
2023-01-13T00:10:11.346Z,0.90
2023-01-13T00:12:41.518Z,1.00
2023-01-13T00:15:09.209Z,0.90
2023-01-13T00:17:36.121Z,0.68
2023-01-13T00:20:03.143Z,0.68
2023-01-13T00:22:29.850Z,0.50
2023-01-13T00:24:58.252Z,0.50
2023-01-13T00:27:25.379Z,0.63
2023-01-13T00:29:52.328Z,0.45
2023-01-13T00:32:19.039Z,0.35
2023-01-13T00:34:45.888Z,0.60
2023-01-13T00:37:15.764Z,0.40
2023-01-13T00:39:42.516Z,0.35
2023-01-13T00:42:28.740Z,0.30
2023-01-13T00:44:55.504Z,0.40
2023-01-13T00:47:23.405Z,0.60
2023-01-13T00:49:50.227Z,0.57
2023-01-13T00:52:16.968Z,0.47
2023-01-13T00:54:43.795Z,0.20
2023-01-13T00:57:10.626Z,0.38
2023-01-13T00:59:37.319Z,0.40
2023-01-13T01:02:04.164Z,0.40
2023-01-13T01:04:31.260Z,0.38
2023-01-13T01:06:58.126Z,0.65
2023-01-13T01:09:32.532Z,0.40
2023-01-13T01:12:00.320Z,0.77
2023-01-13T01:14:27.337Z,0.80
2023-01-13T01:16:54.737Z,0.57
2023-01-13T01:19:21.548Z,0.98
2023-01-13T01:21:49.080Z,1.10
2023-01-13T01:24:16.771Z,0.70
2023-01-13T01:26:43.624Z,1.05
2023-01-13T01:29:14.572Z,0.80
2023-01-13T01:34:08.102Z,1.45
2023-01-13T01:36:36.313Z,1.73
2023-01-13T01:39:04.276Z,1.48
2023-01-13T01:41:33.091Z,1.48
2023-01-13T01:44:04.498Z,1.45
2023-01-13T01:46:41.353Z,1.85
2023-01-13T01:49:11.062Z,1.55
2023-01-13T01:51:55.176Z,1.38
2023-01-13T01:54:30.564Z,1.83
2023-01-13T01:56:57.561Z,1.52
2023-01-13T01:59:28.209Z,1.95
2023-01-13T02:01:57.266Z,1.48
2023-01-13T02:04:31.128Z,1.13
2023-01-13T02:06:58.152Z,1.23
2023-01-13T02:09:25.540Z,1.42
2023-01-13T02:12:10.716Z,2.15
2023-01-13T02:14:38.207Z,2.05
2023-01-13T02:17:26.746Z,1.23
2023-01-13T02:20:21.521Z,1.63
2023-01-13T02:24:00.346Z,1.15
2023-01-13T02:27:01.239Z,1.00
2023-01-13T02:30:20.936Z,1.00
2023-01-13T02:33:22.279Z,0.90
2023-01-13T02:35:50.928Z,1.17
2023-01-13T02:38:29.135Z,1.45
2023-01-13T02:41:33.787Z,0.93
2023-01-13T02:44:08.995Z,0.80
2023-01-13T02:47:20.339Z,1.15
2023-01-13T02:52:43.018Z,0.80
2023-01-13T02:55:14.221Z,0.70
2023-01-13T02:57:42.470Z,1.13
2023-01-13T03:00:11.562Z,1.05
2023-01-13T03:02:38.800Z,0.80
2023-01-13T03:05:06.286Z,0.80
2023-01-13T03:07:55.720Z,1.20
2023-01-13T03:10:50.076Z,0.50
2023-01-13T03:13:53.860Z,1.48
2023-01-13T03:16:48.084Z,0.95
2023-01-13T03:19:17.648Z,0.60
2023-01-13T03:21:53.769Z,1.05
2023-01-13T03:24:24.700Z,0.60
2023-01-13T03:27:13.035Z,0.52
2023-01-13T03:30:18.521Z,0.60
2023-01-13T03:32:55.999Z,0.70
2023-01-13T03:35:37.152Z,0.68
2023-01-13T03:38:11.355Z,0.52
2023-01-13T03:40:45.668Z,0.45
2023-01-13T03:43:34.718Z,0.40
2023-01-13T03:46:07.361Z,0.63
2023-01-13T03:48:36.181Z,0.40
2023-01-13T03:51:07.507Z,0.40
2023-01-13T03:53:37.959Z,0.40
2023-01-13T03:56:12.972Z,0.52
2023-01-13T03:58:42.839Z,0.40
2023-01-13T04:01:25.319Z,0.40
2023-01-13T04:03:59.572Z,0.52
2023-01-13T04:06:29.281Z,0.30
2023-01-13T04:09:02.212Z,0.40
2023-01-13T04:11:33.730Z,0.50
2023-01-13T04:14:02.065Z,0.30
2023-01-13T04:16:28.962Z,0.32
2023-01-13T04:18:55.762Z,0.60
2023-01-13T04:21:22.508Z,0.40
2023-01-13T04:23:51.516Z,0.20
2023-01-13T04:26:19.881Z,0.50
2023-01-13T04:28:46.870Z,0.40
2023-01-13T04:31:13.758Z,0.40
2023-01-13T04:33:40.710Z,0.65
2023-01-13T04:36:07.760Z,0.50
2023-01-13T04:38:34.561Z,0.30
2023-01-13T04:41:01.361Z,0.52
2023-01-13T04:43:28.223Z,0.52
2023-01-13T04:45:55.108Z,0.25
2023-01-13T04:48:21.945Z,0.40
2023-01-13T04:50:48.680Z,0.10
2023-01-13T04:53:15.645Z,0.30
2023-01-13T04:55:44.356Z,0.20
2023-01-13T04:58:11.405Z,0.60
2023-01-13T05:00:38.437Z,0.20
2023-01-13T05:03:05.319Z,0.15
2023-01-13T05:05:32.171Z,0.20
2023-01-13T05:07:58.994Z,0.28
2023-01-13T05:10:26.627Z,0.30
2023-01-13T05:13:11.985Z,0.40
2023-01-13T05:15:59.459Z,0.20
2023-01-13T05:18:26.551Z,0.10
2023-01-13T05:20:53.391Z,0.20
2023-01-13T05:23:38.852Z,0.22
2023-01-13T05:26:06.059Z,0.30
2023-01-13T05:28:33.987Z,0.20
2023-01-13T05:31:00.951Z,0.30
2023-01-13T05:33:27.774Z,0.63
2023-01-13T05:35:54.532Z,0.20
2023-01-13T05:38:21.774Z,0.57
2023-01-13T05:41:07.204Z,0.30
2023-01-13T05:43:35.007Z,0.30
2023-01-13T05:46:03.171Z,1.02
2023-01-13T05:48:35.098Z,0.50
2023-01-13T05:51:03.313Z,0.32
2023-01-13T05:53:30.373Z,0.60
2023-01-13T05:55:57.156Z,0.50
2023-01-13T05:58:25.807Z,0.88
2023-01-13T06:00:53.053Z,0.82
2023-01-13T06:03:20.311Z,0.50
2023-01-13T06:05:47.820Z,0.88
2023-01-13T06:08:14.785Z,0.63
2023-01-13T06:10:41.820Z,1.00
2023-01-13T06:13:08.528Z,0.63
2023-01-13T06:15:35.337Z,0.80
2023-01-13T06:18:03.945Z,0.65
2023-01-13T06:20:30.840Z,1.13
2023-01-13T06:22:58.189Z,1.30
2023-01-13T06:25:49.346Z,1.17
2023-01-13T06:30:46.914Z,0.50
2023-01-13T06:35:55.697Z,0.73
2023-01-13T06:38:23.499Z,0.50
2023-01-13T06:40:50.503Z,0.60
2023-01-13T06:43:17.885Z,0.60
2023-01-13T06:45:53.152Z,0.60
2023-01-13T06:48:35.277Z,0.30
2023-01-13T06:51:03.746Z,0.90
2023-01-13T06:53:30.598Z,1.35
2023-01-13T06:55:57.411Z,0.55
2023-01-13T06:58:24.228Z,0.70
2023-01-13T07:00:51.655Z,0.70
2023-01-13T07:03:19.678Z,1.35
2023-01-13T07:05:54.246Z,0.93
2023-01-13T07:08:22.008Z,0.55
2023-01-13T07:10:48.781Z,0.50
2023-01-13T07:13:34.221Z,0.70
2023-01-13T07:16:03.041Z,0.47
2023-01-13T07:18:32.174Z,0.40
2023-01-13T07:21:05.165Z,0.57
2023-01-13T07:23:35.399Z,0.40
2023-01-13T07:26:02.662Z,0.40
2023-01-13T07:28:30.208Z,0.50
2023-01-13T07:30:57.829Z,0.40
2023-01-13T07:33:24.696Z,0.57
2023-01-13T07:36:02.858Z,0.60
2023-01-13T07:38:30.646Z,0.75
2023-01-13T07:40:57.456Z,0.47
2023-01-13T07:43:33.378Z,0.60
2023-01-13T07:46:05.100Z,0.50
2023-01-13T07:48:33.942Z,0.30
2023-01-13T07:51:08.783Z,0.55
2023-01-13T07:53:35.901Z,0.50
2023-01-13T07:56:04.737Z,0.43
2023-01-13T07:58:33.249Z,0.43
2023-01-13T08:01:00.192Z,0.68
2023-01-13T08:03:27.335Z,0.63
2023-01-13T08:05:54.108Z,0.95
2023-01-13T08:08:20.954Z,0.80
2023-01-13T08:10:47.846Z,0.60
2023-01-13T08:13:22.833Z,0.82
2023-01-13T08:15:54.316Z,0.73
2023-01-13T08:18:22.483Z,0.73
2023-01-13T08:20:52.352Z,0.75
2023-01-13T08:23:23.195Z,1.13
2023-01-13T08:25:50.582Z,1.35
2023-01-13T08:28:17.731Z,0.80
2023-01-13T08:30:44.623Z,1.00
2023-01-13T08:33:12.698Z,1.20
2023-01-13T08:35:40.903Z,0.80
2023-01-13T08:38:09.056Z,1.27
2023-01-13T08:40:36.026Z,0.98
2023-01-13T08:43:03.061Z,0.93
2023-01-13T08:45:29.879Z,0.80
2023-01-13T08:47:56.745Z,1.25
2023-01-13T08:50:23.808Z,1.50
2023-01-13T08:52:50.709Z,1.00
2023-01-13T08:55:17.534Z,0.90
2023-01-13T08:57:44.625Z,1.13
2023-01-13T09:00:12.122Z,1.20
2023-01-13T09:02:39.029Z,1.38
2023-01-13T09:05:07.428Z,1.00
2023-01-13T09:07:35.739Z,0.95
2023-01-13T09:10:03.020Z,1.45
2023-01-13T09:12:48.527Z,1.40
2023-01-13T09:15:18.498Z,1.15
2023-01-13T09:17:45.863Z,1.10
2023-01-13T09:20:13.099Z,1.02
2023-01-13T09:22:40.798Z,0.88
2023-01-13T09:25:09.285Z,0.88
2023-01-13T09:27:36.229Z,1.08
2023-01-13T09:30:03.670Z,0.85
2023-01-13T09:32:30.444Z,0.82
2023-01-13T09:35:00.178Z,0.77
2023-01-13T09:37:28.656Z,0.80
2023-01-13T09:39:55.807Z,1.17
2023-01-13T09:43:07.258Z,1.08
2023-01-13T09:45:47.299Z,0.98
2023-01-13T09:48:24.879Z,1.23
2023-01-13T09:50:55.071Z,0.93
2023-01-13T09:53:27.562Z,1.00
2023-01-13T09:55:55.085Z,1.10
2023-01-13T09:58:21.841Z,1.40
2023-01-13T10:01:04.892Z,0.90
2023-01-13T10:03:33.477Z,0.98
2023-01-13T10:06:21.042Z,1.00
2023-01-13T10:08:48.449Z,1.08
2023-01-13T10:11:42.228Z,0.88
2023-01-13T10:14:28.622Z,1.13
2023-01-13T10:17:13.625Z,1.17
2023-01-13T10:19:55.682Z,0.68
2023-01-13T10:22:37.098Z,0.60
2023-01-13T10:25:21.012Z,0.90
2023-01-13T10:27:50.208Z,0.73
2023-01-13T10:30:31.078Z,0.93
2023-01-13T10:33:01.215Z,0.70
2023-01-13T10:36:00.064Z,0.90
2023-01-13T10:38:30.023Z,0.52
2023-01-13T10:41:02.424Z,0.75
2023-01-13T10:43:29.965Z,0.65
2023-01-13T10:46:05.891Z,0.43
2023-01-13T10:48:41.939Z,0.70
2023-01-13T10:51:17.816Z,0.70
2023-01-13T10:54:14.599Z,0.70
2023-01-13T10:56:43.885Z,0.68
2023-01-13T10:59:17.005Z,0.50
2023-01-13T11:01:56.042Z,0.50
2023-01-13T11:04:32.152Z,0.60
2023-01-13T11:06:59.743Z,0.88
2023-01-13T11:09:27.501Z,0.60
2023-01-13T11:11:57.770Z,0.57
2023-01-13T11:14:33.465Z,0.70
2023-01-13T11:17:20.765Z,0.50
2023-01-13T11:20:20.892Z,0.60
2023-01-13T11:22:53.112Z,0.75
2023-01-13T11:25:32.835Z,0.65
2023-01-13T11:28:26.868Z,0.90
2023-01-13T11:31:02.093Z,0.70
2023-01-13T11:33:38.025Z,1.02
2023-01-13T11:36:08.180Z,1.00
2023-01-13T11:38:43.438Z,0.97
2023-01-13T11:41:17.153Z,1.02
2023-01-13T11:43:50.669Z,0.73
2023-01-13T11:46:17.637Z,0.60
2023-01-13T11:48:44.387Z,0.70
2023-01-13T11:51:14.146Z,0.50
2023-01-13T11:53:59.311Z,0.55
2023-01-13T11:57:18.626Z,0.60
2023-01-13T12:00:11.320Z,0.70
2023-01-13T12:03:23.220Z,0.40
2023-01-13T12:06:03.586Z,0.70
2023-01-13T12:09:11.810Z,0.52
2023-01-13T12:12:23.389Z,0.70
2023-01-13T12:15:25.763Z,0.82
2023-01-13T12:18:30.076Z,0.60
2023-01-13T12:21:01.002Z,0.80
2023-01-13T12:26:08.654Z,1.00
2023-01-13T12:29:07.318Z,0.95
2023-01-13T12:31:37.084Z,1.17
2023-01-13T12:34:20.488Z,1.58
2023-01-13T12:37:16.089Z,1.70
2023-01-13T12:40:01.044Z,0.77
2023-01-13T12:43:04.973Z,1.02
2023-01-13T12:45:33.433Z,1.20
2023-01-13T12:48:00.748Z,0.73
2023-01-13T12:50:27.583Z,0.70
2023-01-13T12:53:30.987Z,1.00
2023-01-13T12:56:20.689Z,0.82
2023-01-13T12:58:47.484Z,0.70
2023-01-13T13:01:15.035Z,1.35
2023-01-13T13:03:42.259Z,1.10
2023-01-13T13:06:22.459Z,1.25
2023-01-13T13:09:13.938Z,1.37
2023-01-13T13:11:59.456Z,1.02
2023-01-13T13:14:49.510Z,1.73
2023-01-13T13:17:28.555Z,1.00
2023-01-13T13:19:59.793Z,1.20
2023-01-13T13:22:26.564Z,1.17
2023-01-13T13:24:56.385Z,1.00
2023-01-13T13:27:38.666Z,1.13
2023-01-13T13:30:37.861Z,0.60
2023-01-13T13:33:13.850Z,0.85
2023-01-13T13:35:56.140Z,0.93
2023-01-13T13:39:07.275Z,0.82
2023-01-13T13:41:54.671Z,0.95
2023-01-13T13:44:58.184Z,0.85
2023-01-13T13:47:25.183Z,0.85
2023-01-13T13:49:54.532Z,0.55
2023-01-13T13:52:26.708Z,0.93
2023-01-13T13:54:57.844Z,1.25
2023-01-13T13:57:39.515Z,1.10
2023-01-13T14:00:23.117Z,0.70
2023-01-13T14:03:01.844Z,0.47
2023-01-13T14:05:36.800Z,0.80
2023-01-13T14:08:23.868Z,0.70
2023-01-13T14:10:50.810Z,0.63
2023-01-13T14:13:26.413Z,0.50
2023-01-13T14:15:56.814Z,0.60
2023-01-13T14:18:23.933Z,0.95
2023-01-13T14:20:54.614Z,1.00
2023-01-13T14:23:26.456Z,0.82
2023-01-13T14:25:54.019Z,1.25
2023-01-13T14:28:27.023Z,0.85
2023-01-13T14:30:54.843Z,0.70
2023-01-13T14:33:38.857Z,0.80
2023-01-13T14:36:12.483Z,0.80
2023-01-13T14:38:39.480Z,0.80
2023-01-13T14:41:13.711Z,1.13
2023-01-13T14:43:48.168Z,0.77
2023-01-13T14:51:32.928Z,0.50
2023-01-13T14:53:59.914Z,1.10
2023-01-13T14:56:42.695Z,0.80
2023-01-13T14:59:31.253Z,1.00
2023-01-13T15:01:58.556Z,0.88
2023-01-13T15:04:27.438Z,1.00
2023-01-13T15:06:56.222Z,0.65
2023-01-13T15:09:25.815Z,0.57
2023-01-13T15:11:54.306Z,0.70
2023-01-13T15:14:26.914Z,0.40
2023-01-13T15:16:53.700Z,0.93
2023-01-13T15:19:20.480Z,0.40
2023-01-13T15:21:47.333Z,0.65
2023-01-13T15:24:14.092Z,1.10
2023-01-13T15:26:41.000Z,0.73
2023-01-13T15:29:15.179Z,0.43
2023-01-13T15:31:42.439Z,0.82
2023-01-13T15:34:09.217Z,0.80
2023-01-13T15:36:37.543Z,0.80
2023-01-13T15:39:04.765Z,0.43
2023-01-13T15:41:50.260Z,0.75
2023-01-13T15:44:36.106Z,0.60
2023-01-13T15:47:06.390Z,0.70
2023-01-13T15:49:43.125Z,1.27
2023-01-13T15:52:21.504Z,1.00
2023-01-13T15:54:48.886Z,0.73
2023-01-13T15:57:27.444Z,1.13
2023-01-13T16:00:01.016Z,1.10
2023-01-13T16:02:29.848Z,0.70
2023-01-13T16:04:57.077Z,1.00
2023-01-13T16:07:25.046Z,0.47
2023-01-13T16:09:52.470Z,0.80
2023-01-13T16:12:19.319Z,0.65
2023-01-13T16:14:46.256Z,1.02
2023-01-13T16:17:19.204Z,0.85
2023-01-13T16:19:46.537Z,1.10
2023-01-13T16:22:15.198Z,1.13
2023-01-13T16:24:42.516Z,1.23
2023-01-13T16:27:24.408Z,1.38
2023-01-13T16:29:52.176Z,2.28
2023-01-13T16:32:20.933Z,1.98
2023-01-13T16:34:48.165Z,1.60
2023-01-13T16:37:24.565Z,2.13
2023-01-13T16:39:53.090Z,1.90
2023-01-13T16:42:20.581Z,2.25
2023-01-13T16:44:48.567Z,1.38
2023-01-13T16:47:16.698Z,1.50
2023-01-13T16:49:43.823Z,1.20
2023-01-13T16:52:10.859Z,0.90
2023-01-13T16:54:37.850Z,0.80
2023-01-13T16:57:06.264Z,1.20
2023-01-13T16:59:33.415Z,1.00
2023-01-13T17:02:02.140Z,0.80
2023-01-13T17:04:29.150Z,0.98
2023-01-13T17:07:04.661Z,1.33
2023-01-13T17:09:31.759Z,1.17
2023-01-13T17:11:58.944Z,1.35
2023-01-13T17:14:26.565Z,1.45
2023-01-13T17:16:57.207Z,1.08
2023-01-13T17:19:24.632Z,1.45
2023-01-13T17:21:51.401Z,1.38
2023-01-13T17:24:18.608Z,2.10
2023-01-13T17:26:50.659Z,1.88
2023-01-13T17:29:23.211Z,1.10
2023-01-13T17:31:51.000Z,0.98
2023-01-13T17:34:18.702Z,1.10
2023-01-13T17:36:45.961Z,1.52
2023-01-13T17:39:18.025Z,1.30
2023-01-13T17:41:45.632Z,1.63
2023-01-13T17:44:16.932Z,2.45
2023-01-13T17:46:44.407Z,2.15
2023-01-13T17:49:13.309Z,2.28
2023-01-13T17:51:40.255Z,2.63
2023-01-13T17:54:07.376Z,2.55
2023-01-13T17:56:34.196Z,1.63
2023-01-13T17:59:00.961Z,2.50
2023-01-13T18:01:30.895Z,2.70
2023-01-13T18:03:57.914Z,1.50
2023-01-13T18:06:24.880Z,2.20
2023-01-13T18:08:52.240Z,1.70
2023-01-13T18:11:20.828Z,2.20
2023-01-13T18:14:00.340Z,3.05
2023-01-13T18:16:30.215Z,6.85
2023-01-13T18:19:36.271Z,1.70
2023-01-13T18:22:21.558Z,1.25
2023-01-13T18:25:07.103Z,0.85
2023-01-13T18:27:36.103Z,0.75
2023-01-13T18:30:03.724Z,0.70
2023-01-13T18:32:33.050Z,0.70
2023-01-13T18:35:06.798Z,0.75
2023-01-13T18:37:38.741Z,1.27
2023-01-13T18:40:07.375Z,1.45
2023-01-13T18:42:53.605Z,6.70
2023-01-13T18:45:25.769Z,10.70
2023-01-13T18:47:54.755Z,14.90
2023-01-13T18:50:22.517Z,11.38
2023-01-13T18:52:49.553Z,9.75
2023-01-13T18:55:16.405Z,5.88
2023-01-13T18:57:43.547Z,3.15
2023-01-13T19:00:12.522Z,2.92
2023-01-13T19:02:39.668Z,2.88
2023-01-13T19:05:07.072Z,2.25
2023-01-13T19:07:35.792Z,2.17
2023-01-13T19:10:04.475Z,2.38
2023-01-13T19:12:33.731Z,3.90
2023-01-13T19:15:02.845Z,5.40
2023-01-13T19:17:34.630Z,4.22
2023-01-13T19:20:01.825Z,3.58
2023-01-13T19:22:33.732Z,3.58
2023-01-13T19:25:01.577Z,4.32
2023-01-13T19:27:28.875Z,4.35
2023-01-13T19:30:01.533Z,5.43
2023-01-13T19:32:30.920Z,5.30
2023-01-13T19:34:59.582Z,5.47
2023-01-13T19:37:34.347Z,3.90
2023-01-13T19:40:01.383Z,11.25
2023-01-13T19:42:46.736Z,15.95
2023-01-13T19:45:27.453Z,11.02
2023-01-13T19:47:55.454Z,10.43
2023-01-13T19:50:22.360Z,7.65
2023-01-13T19:52:49.188Z,8.57
2023-01-13T19:55:16.037Z,4.78
2023-01-13T19:57:43.543Z,4.47
2023-01-13T20:00:11.902Z,5.55
2023-01-13T20:02:47.973Z,5.00
2023-01-13T20:05:21.263Z,4.57
2023-01-13T20:07:49.223Z,4.03
2023-01-13T20:10:17.886Z,3.08
2023-01-13T20:12:45.346Z,11.45
2023-01-13T20:15:14.618Z,33.28
2023-01-13T20:17:42.054Z,16.88
2023-01-13T20:20:10.495Z,24.05
2023-01-13T20:22:38.903Z,19.63
2023-01-13T20:25:06.311Z,14.02
2023-01-13T20:27:33.174Z,8.30
2023-01-13T20:29:59.970Z,6.75
2023-01-13T20:32:26.769Z,6.82
2023-01-13T20:34:53.566Z,11.23
2023-01-13T20:37:20.402Z,10.07
2023-01-13T20:39:48.239Z,9.65
2023-01-13T20:42:30.082Z,7.32
2023-01-13T20:45:01.221Z,4.93
2023-01-13T20:47:29.383Z,4.97
2023-01-13T20:49:56.220Z,4.60
2023-01-13T20:52:23.231Z,4.15
2023-01-13T20:54:50.065Z,4.32
2023-01-13T20:57:17.224Z,3.92
2023-01-13T20:59:43.938Z,3.90
2023-01-13T21:02:13.320Z,2.80
2023-01-13T21:04:40.588Z,2.38
2023-01-13T21:07:07.723Z,2.20
2023-01-13T21:09:34.779Z,2.10
2023-01-13T21:12:20.445Z,2.53
2023-01-13T21:15:06.172Z,2.60
2023-01-13T21:17:51.431Z,4.45
2023-01-13T21:20:18.533Z,5.30
2023-01-13T21:22:46.661Z,5.22
2023-01-13T21:25:14.277Z,4.78
2023-01-13T21:27:41.772Z,5.25
2023-01-13T21:30:09.167Z,5.07
2023-01-13T21:32:35.978Z,5.93
2023-01-13T21:35:02.882Z,4.70
2023-01-13T21:37:29.680Z,7.03
2023-01-13T21:39:56.771Z,4.97
2023-01-13T21:42:42.295Z,6.35
2023-01-13T21:45:29.112Z,6.93
2023-01-13T21:47:56.164Z,6.18
2023-01-13T21:50:25.917Z,4.47
2023-01-13T21:52:52.920Z,5.30
2023-01-13T21:55:25.486Z,6.57
2023-01-13T21:58:12.921Z,5.55
2023-01-13T22:00:41.552Z,5.30
2023-01-13T22:03:09.643Z,6.35
2023-01-13T22:05:36.753Z,5.50
2023-01-13T22:08:04.354Z,5.55
2023-01-13T22:10:32.068Z,6.40
2023-01-13T22:13:20.755Z,4.93
2023-01-13T22:15:47.710Z,4.97
2023-01-13T22:18:14.547Z,3.70
2023-01-13T22:20:42.158Z,3.90
2023-01-13T22:23:09.528Z,4.10
2023-01-13T22:25:36.917Z,4.07
2023-01-13T22:28:06.344Z,2.60
2023-01-13T22:30:33.365Z,3.03
2023-01-13T22:33:00.635Z,2.58
2023-01-13T22:35:27.532Z,2.53
2023-01-13T22:37:54.356Z,3.40
2023-01-13T22:40:21.451Z,3.33
2023-01-13T22:42:48.271Z,3.08
2023-01-13T22:45:15.102Z,3.35
2023-01-13T22:47:42.010Z,2.70
2023-01-13T22:50:09.475Z,3.05
2023-01-13T22:52:36.632Z,3.13
2023-01-13T22:55:04.051Z,1.55
2023-01-13T22:57:35.973Z,3.35
2023-01-13T23:00:07.056Z,3.45
2023-01-13T23:02:34.703Z,2.88
2023-01-13T23:05:02.364Z,2.38
2023-01-13T23:07:29.556Z,2.47
2023-01-13T23:09:56.617Z,1.70
2023-01-13T23:12:23.806Z,3.15
2023-01-13T23:14:50.817Z,2.78
2023-01-13T23:17:17.809Z,3.08
2023-01-13T23:19:44.671Z,2.17
2023-01-13T23:22:13.176Z,3.15
2023-01-13T23:24:40.083Z,2.10
2023-01-13T23:27:07.036Z,3.08
2023-01-13T23:29:34.131Z,2.75
2023-01-13T23:32:00.970Z,3.90
2023-01-13T23:34:27.941Z,2.47
2023-01-13T23:36:54.695Z,3.10
2023-01-13T23:39:21.542Z,3.50
2023-01-13T23:41:48.337Z,2.55
2023-01-13T23:44:15.249Z,2.15
2023-01-13T23:46:42.149Z,2.35
2023-01-13T23:49:09.258Z,1.85
2023-01-13T23:51:36.128Z,1.98
2023-01-13T23:54:02.984Z,1.35
2023-01-13T23:56:31.228Z,2.17
2023-01-13T23:58:58.238Z,1.50
